ID Time Temp Humidity Light PM2.5 PM10 Voltage Extra Firmware Position Fcnt TTN version Gateways Distance RSSI LSNR Radiosettings
2026-05-03 23:46:56 14.125°C 110.75% 3.36V v5 52.0943 / 5.12534 740 ttn.v3 0.36km -119 -5 868.3MHz, SF9BW125, 4/5CR
2026-05-03 23:15:21 14.375°C 112.188% 3.36V v5 52.0943 / 5.12534 738 ttn.v3 0.36km -115 2.5 868.1MHz, SF9BW125, 4/5CR
2026-05-03 22:59:34 14.625°C 113.688% 3.36V v5 52.0943 / 5.12534 737 ttn.v3 0.36km -115 0.8 867.7MHz, SF9BW125, 4/5CR
- -121 -6.25 867.7MHz, SF9BW125, 4/5CR
1.889km -109 -7.5 867.7MHz, SF9BW125, 4/5CR
2026-05-03 22:43:46 14.6875°C 114.188% 3.36V v5 52.0943 / 5.12534 736 ttn.v3 0.36km -117 -0.2 868.5MHz, SF9BW125, 4/5CR
2026-05-03 22:27:59 14.875°C 114.562% 3.36V v5 52.0943 / 5.12534 735 ttn.v3 0.36km -115 0.5 867.5MHz, SF9BW125, 4/5CR
- -114 -12.5 867.5MHz, SF9BW125, 4/5CR
2026-05-03 22:12:12 15°C 114.812% 3.36V v5 52.0943 / 5.12534 734 ttn.v3 0.36km -113 -0.5 868.3MHz, SF9BW125, 4/5CR
2026-05-03 21:56:24 15.0625°C 115.188% 3.36V v5 52.0943 / 5.12534 733 ttn.v3 0.36km -115 3.2 867.3MHz, SF9BW125, 4/5CR
- -115 -11.5 867.3MHz, SF9BW125, 4/5CR
2026-05-03 21:40:37 15.125°C 114.688% 3.36V v5 52.0943 / 5.12534 732 ttn.v3 0.36km -116 1.5 868.1MHz, SF9BW125, 4/5CR
1.889km -111 -8.75 868.1MHz, SF9BW125, 4/5CR
2026-05-03 21:24:49 15.25°C 114.25% 3.36V v5 52.0943 / 5.12534 731 ttn.v3 0.36km -115 1 867.1MHz, SF9BW125, 4/5CR
- -115 -12.25 867.1MHz, SF9BW125, 4/5CR
2026-05-03 20:53:14 15.6875°C 113.375% 3.36V v5 52.0943 / 5.12534 729 ttn.v3 0.36km -120 0.5 867.9MHz, SF9BW125, 4/5CR
- -125 -10 867.9MHz, SF9BW125, 4/5CR
1.889km -101 -10 867.9MHz, SF9BW125, 4/5CR
2026-05-03 20:21:39 15.9375°C 111.938% 3.36V v5 52.0943 / 5.12534 727 ttn.v3 0.36km -117 1.8 867.7MHz, SF9BW125, 4/5CR
1.889km -105 -8 867.7MHz, SF9BW125, 4/5CR
2026-05-03 20:05:51 15.9375°C 112.25% 3.36V v5 52.0943 / 5.12534 726 ttn.v3 0.36km -119 1.8 868.1MHz, SF9BW125, 4/5CR
1.889km -103 -12.75 868.1MHz, SF9BW125, 4/5CR
2026-05-03 19:50:03 15.9375°C 111.125% 3.36V v5 52.0943 / 5.12534 725 ttn.v3 - -114 -12.5 867.5MHz, SF9BW125, 4/5CR
2026-05-03 19:34:15 16.125°C 110.625% 3.36V v5 52.0943 / 5.12534 724 ttn.v3 0.36km -117 -0.5 868.5MHz, SF9BW125, 4/5CR
2026-05-03 19:18:28 16°C 111.312% 3.36V v5 52.0943 / 5.12534 723 ttn.v3 0.36km -117 2 867.3MHz, SF9BW125, 4/5CR
- -114 -12 867.3MHz, SF9BW125, 4/5CR
- -122 -12.75 867.3MHz, SF9BW125, 4/5CR
2026-05-03 19:02:40 15.9375°C 110.375% 3.36V v5 52.0943 / 5.12534 722 ttn.v3 0.36km -119 -4.2 868.3MHz, SF9BW125, 4/5CR
2026-05-03 18:46:52 15.9375°C 109.25% 3.36V v5 52.0943 / 5.12534 721 ttn.v3 0.36km -119 1.5 867.1MHz, SF9BW125, 4/5CR
- -114 -11.75 867.1MHz, SF9BW125, 4/5CR
2026-05-03 18:31:04 15.6875°C 109.75% 3.36V v5 52.0943 / 5.12534 720 ttn.v3 - -115 -14.75 868.1MHz, SF9BW125, 4/5CR
2026-05-03 18:15:17 15.625°C 110.875% 3.36V v5 52.0943 / 5.12534 719 ttn.v3 0.36km -120 -0.2 867.9MHz, SF9BW125, 4/5CR
1.889km -109 -11.5 867.9MHz, SF9BW125, 4/5CR
- -123 -11.75 867.9MHz, SF9BW125, 4/5CR
- -114 -13.25 867.9MHz, SF9BW125, 4/5CR
2026-05-03 17:59:29 15.5625°C 114.562% 3.36V v5 52.0943 / 5.12534 718 ttn.v3 0.36km -118 -3.2 868.5MHz, SF9BW125, 4/5CR
2026-05-03 17:43:41 15.1875°C 113.375% 3.36V v5 52.0943 / 5.12534 717 ttn.v3 0.36km -117 -1.5 867.7MHz, SF9BW125, 4/5CR
- -121 -7.5 867.7MHz, SF9BW125, 4/5CR
- -113 -11 867.7MHz, SF9BW125, 4/5CR
2026-05-03 17:27:54 14.875°C 113.125% 3.36V v5 52.0943 / 5.12534 716 ttn.v3 0.36km -111 -5.2 868.3MHz, SF9BW125, 4/5CR
2026-05-03 17:12:06 15.0625°C 108.312% 3.36V v5 52.0943 / 5.12534 715 ttn.v3 0.36km -119 -2.8 867.5MHz, SF9BW125, 4/5CR
- -112 -11.25 867.5MHz, SF9BW125, 4/5CR
2026-05-03 16:56:19 16.125°C 109.188% 3.36V v5 52.0943 / 5.12534 714 ttn.v3 0.36km -120 0 868.1MHz, SF9BW125, 4/5CR
- -115 -13.25 868.1MHz, SF9BW125, 4/5CR
2026-05-03 16:40:31 16.375°C 106.75% 3.36V v5 52.0943 / 5.12534 713 ttn.v3 0.36km -117 2.8 867.3MHz, SF9BW125, 4/5CR
- -121 -7.5 867.3MHz, SF9BW125, 4/5CR
- -114 -11.75 867.3MHz, SF9BW125, 4/5CR
2026-05-03 16:24:43 16.625°C 107.25% 3.36V v5 52.0943 / 5.12534 712 ttn.v3 0.36km -119 -2.5 868.5MHz, SF9BW125, 4/5CR
2026-05-03 16:08:55 16.5°C 109.188% 3.36V v5 52.0943 / 5.12534 711 ttn.v3 0.36km -119 1.2 867.1MHz, SF9BW125, 4/5CR
2026-05-03 15:53:07 16.4375°C 113.25% 3.36V v5 52.0943 / 5.12534 710 ttn.v3 0.36km -117 -3.2 868.3MHz, SF9BW125, 4/5CR
2026-05-03 15:37:19 16.125°C 114.562% 3.36V v5 52.0943 / 5.12534 709 ttn.v3 0.36km -119 -4.8 867.9MHz, SF9BW125, 4/5CR
- -115 -13.25 867.9MHz, SF9BW125, 4/5CR
2026-05-03 15:21:31 15.875°C 113% 3.36V v5 52.0943 / 5.12534 708 ttn.v3 0.36km -119 -1.2 868.1MHz, SF9BW125, 4/5CR
- -115 -13 868.1MHz, SF9BW125, 4/5CR
2026-05-03 15:05:43 16.0625°C 113.812% 3.36V v5 52.0943 / 5.12534 707 ttn.v3 0.36km -119 -2.8 867.7MHz, SF9BW125, 4/5CR
- -114 -12.25 867.7MHz, SF9BW125, 4/5CR
2026-05-03 14:49:56 15.9375°C 112.25% 3.36V v5 52.0943 / 5.12534 706 ttn.v3 0.36km -119 -3.8 868.5MHz, SF9BW125, 4/5CR
2026-05-03 14:34:08 15.9375°C 112.75% 3.36V v5 52.0943 / 5.12534 705 ttn.v3 0.36km -119 -3.5 867.5MHz, SF9BW125, 4/5CR
- -114 -12.75 867.5MHz, SF9BW125, 4/5CR
2026-05-03 14:02:32 16.1875°C 111.562% 3.36V v5 52.0943 / 5.12534 703 ttn.v3 0.36km -114 1.2 867.3MHz, SF9BW125, 4/5CR
- -115 -10.75 867.3MHz, SF9BW125, 4/5CR
2026-05-03 13:46:44 16.3125°C 109.188% 3.36V v5 52.0943 / 5.12534 702 ttn.v3 0.36km -120 0.8 868.1MHz, SF9BW125, 4/5CR
2026-05-03 13:30:56 16.625°C 107.688% 3.36V v5 52.0943 / 5.12534 701 ttn.v3 0.36km -117 1.2 867.1MHz, SF9BW125, 4/5CR
- -115 -11.25 867.1MHz, SF9BW125, 4/5CR
2026-05-03 13:15:08 16.8125°C 105.125% 3.36V v5 52.0943 / 5.12534 700 ttn.v3 0.36km -115 1.5 868.5MHz, SF9BW125, 4/5CR
2026-05-03 12:59:20 17.375°C 97.8125% 3.36V v5 52.0943 / 5.12534 699 ttn.v3 0.36km -119 1.8 867.9MHz, SF9BW125, 4/5CR
1.889km -109 -6.5 867.9MHz, SF9BW125, 4/5CR
- -125 -10.25 867.9MHz, SF9BW125, 4/5CR
2026-05-03 12:43:32 17.5°C 97.875% 3.36V v5 52.0943 / 5.12534 698 ttn.v3 0.36km -114 1.2 868.3MHz, SF9BW125, 4/5CR
2026-05-03 12:27:44 17.625°C 96.875% 3.36V v5 52.0943 / 5.12534 697 ttn.v3 0.36km -115 2.2 867.7MHz, SF9BW125, 4/5CR
1.889km -109 -9.25 867.7MHz, SF9BW125, 4/5CR
- -114 -13.5 867.7MHz, SF9BW125, 4/5CR
2026-05-03 12:11:55 17.9375°C 95.4375% 3.36V v5 52.0943 / 5.12534 696 ttn.v3 0.36km -120 1.2 868.1MHz, SF9BW125, 4/5CR
2026-05-03 11:56:07 18.625°C 91.125% 3.36V v5 52.0943 / 5.12534 695 ttn.v3 0.36km -115 -0.2 867.5MHz, SF9BW125, 4/5CR
- -115 -13.5 867.5MHz, SF9BW125, 4/5CR
2026-05-03 11:40:18 18.375°C 92% 3.36V v5 52.0943 / 5.12534 694 ttn.v3 0.36km -117 -0.2 868.5MHz, SF9BW125, 4/5CR
2026-05-03 11:24:30 18°C 92.9375% 3.36V v5 52.0943 / 5.12534 693 ttn.v3 0.36km -117 2.8 867.3MHz, SF9BW125, 4/5CR
- -114 -13.25 867.3MHz, SF9BW125, 4/5CR
2026-05-03 10:52:53 18.125°C 94% 3.36V v5 52.0943 / 5.12534 691 ttn.v3 0.36km -115 3 867.1MHz, SF9BW125, 4/5CR
- -114 -12 867.1MHz, SF9BW125, 4/5CR
2026-05-03 10:37:04 18.0625°C 95.75% 3.36V v5 52.0943 / 5.12534 690 ttn.v3 0.36km -118 1.2 868.1MHz, SF9BW125, 4/5CR
2026-05-03 10:21:16 18°C 95.8125% 3.36V v5 52.0943 / 5.12534 689 ttn.v3 0.36km -120 0.2 867.9MHz, SF9BW125, 4/5CR
1.889km -109 -5.75 867.9MHz, SF9BW125, 4/5CR
- -124 -11.5 867.9MHz, SF9BW125, 4/5CR
2026-05-03 10:05:28 17.75°C 97.625% 3.36V v5 52.0943 / 5.12534 688 ttn.v3 0.36km -117 -0.2 868.5MHz, SF9BW125, 4/5CR
2026-05-03 09:49:39 17.5°C 99.4375% 3.36V v5 52.0943 / 5.12534 687 ttn.v3 0.36km -117 1.5 867.7MHz, SF9BW125, 4/5CR
- -122 -8.5 867.7MHz, SF9BW125, 4/5CR
1.889km -105 -9.75 867.7MHz, SF9BW125, 4/5CR
- -113 -13.5 867.7MHz, SF9BW125, 4/5CR
2026-05-03 09:33:51 17°C 102.188% 3.36V v5 52.0943 / 5.12534 686 ttn.v3 0.36km -119 -1.2 868.3MHz, SF9BW125, 4/5CR
2026-05-03 09:18:03 16.5°C 103.938% 3.36V v5 52.0943 / 5.12534 685 ttn.v3 0.36km -117 0.8 867.5MHz, SF9BW125, 4/5CR
2026-05-03 09:02:15 16.125°C 105.188% 3.36V v5 52.0943 / 5.12534 684 ttn.v3 0.36km -120 1.8 868.1MHz, SF9BW125, 4/5CR
2026-05-03 08:46:27 15.9375°C 107.062% 3.36V v5 52.0943 / 5.12534 683 ttn.v3 0.36km -114 2.2 867.3MHz, SF9BW125, 4/5CR
- -113 -12.5 867.3MHz, SF9BW125, 4/5CR
2026-05-03 08:30:40 15.4375°C 109.125% 3.36V v5 52.0943 / 5.12534 682 ttn.v3 0.36km -117 0.2 868.5MHz, SF9BW125, 4/5CR
2026-05-03 08:14:52 14.9375°C 111.688% 3.36V v5 52.0943 / 5.12534 681 ttn.v3 0.36km -117 2.8 867.1MHz, SF9BW125, 4/5CR
1.889km -107 -10 867.1MHz, SF9BW125, 4/5CR
- -114 -12.75 867.1MHz, SF9BW125, 4/5CR
2026-05-03 07:59:05 14.6875°C 111.562% 3.36V v5 52.0943 / 5.12534 680 ttn.v3 0.36km -117 -4.8 868.3MHz, SF9BW125, 4/5CR
2026-05-03 07:43:17 14.5°C 113.75% 3.36V v5 52.0943 / 5.12534 679 ttn.v3 0.36km -120 1.2 867.9MHz, SF9BW125, 4/5CR
1.889km -110 -4.5 867.9MHz, SF9BW125, 4/5CR
2026-05-03 07:27:30 14.25°C 114.562% 3.36V v5 52.0943 / 5.12534 678 ttn.v3 0.36km -117 2.2 868.1MHz, SF9BW125, 4/5CR
2026-05-03 07:11:43 14.125°C 115.875% 3.36V v5 52.0943 / 5.12534 677 ttn.v3 0.36km -117 1.5 867.7MHz, SF9BW125, 4/5CR
- -124 -11.5 867.7MHz, SF9BW125, 4/5CR
1.889km -102 -12 867.7MHz, SF9BW125, 4/5CR
2026-05-03 06:55:56 14.0625°C 116.562% 3.36V v5 52.0943 / 5.12534 676 ttn.v3 0.36km -119 -0.2 868.5MHz, SF9BW125, 4/5CR
2026-05-03 06:40:09 14.0625°C 116.875% 3.36V v5 52.0943 / 5.12534 675 ttn.v3 0.36km -117 0.8 867.5MHz, SF9BW125, 4/5CR
- -114 -14 867.5MHz, SF9BW125, 4/5CR
2026-05-03 06:24:21 14.1875°C 117.188% 3.36V v5 52.0943 / 5.12534 674 ttn.v3 0.36km -117 -2.8 868.3MHz, SF9BW125, 4/5CR
2026-05-03 06:08:34 14.3125°C 117.125% 3.36V v5 52.0943 / 5.12534 673 ttn.v3 0.36km -115 2 867.3MHz, SF9BW125, 4/5CR
- -115 -13 867.3MHz, SF9BW125, 4/5CR
2026-05-03 05:54:11 14.25°C 116.625% 3.36V v5 52.0943 / 5.12534 672 ttn.v3 0.36km -119 1.2 868.1MHz, SF12BW125, 4/5CR
1.889km -108 -13.25 868.1MHz, SF12BW125, 4/5CR
- -114 -15.25 868.1MHz, SF12BW125, 4/5CR
2026-05-03 05:37:03 14.5°C 116.75% 3.36V v5 52.0944 / 5.12494 671 ttn.v3 0.376km -117 2.2 867.1MHz, SF9BW125, 4/5CR
1.916km -105 -8.25 867.1MHz, SF9BW125, 4/5CR
- -115 -13.25 867.1MHz, SF9BW125, 4/5CR
2026-05-03 05:21:16 14.4375°C 116.812% 3.36V v5 52.0944 / 5.12494 670 ttn.v3 0.376km -119 0 868.5MHz, SF9BW125, 4/5CR
2026-05-03 05:05:29 14.3125°C 117.125% 3.36V v5 52.0944 / 5.12494 669 ttn.v3 0.376km -119 0.8 867.9MHz, SF9BW125, 4/5CR
1.916km -109 -5.75 867.9MHz, SF9BW125, 4/5CR
2026-05-03 04:49:41 14.25°C 117.25% 3.36V v5 52.0944 / 5.12494 668 ttn.v3 0.376km -112 -0.2 868.3MHz, SF9BW125, 4/5CR
2026-05-03 04:33:54 14.125°C 117.188% 3.36V v5 52.0944 / 5.12494 667 ttn.v3 0.376km -119 1 867.7MHz, SF9BW125, 4/5CR
2026-05-03 04:18:07 14°C 116.688% 3.36V v5 52.0944 / 5.12494 666 ttn.v3 0.376km -120 0.5 868.1MHz, SF9BW125, 4/5CR
2026-05-03 04:02:20 13.9375°C 116.438% 3.36V v5 52.0944 / 5.12494 665 ttn.v3 0.376km -117 1.5 867.5MHz, SF9BW125, 4/5CR
- -114 -12.25 867.5MHz, SF9BW125, 4/5CR
2026-05-03 03:46:33 13.875°C 116.312% 3.36V v5 52.0944 / 5.12494 664 ttn.v3 0.376km -117 1 868.5MHz, SF9BW125, 4/5CR
2026-05-03 03:30:45 13.875°C 116.688% 3.36V v5 52.0944 / 5.12494 663 ttn.v3 0.376km -117 2.5 867.3MHz, SF9BW125, 4/5CR
- -121 -7.25 867.3MHz, SF9BW125, 4/5CR
2026-05-03 03:14:58 13.8125°C 117.062% 3.36V v5 52.0944 / 5.12494 662 ttn.v3 0.376km -114 2 868.3MHz, SF9BW125, 4/5CR
2026-05-03 02:59:11 13.75°C 116.688% 3.36V v5 52.0944 / 5.12494 661 ttn.v3 0.376km -117 2.8 867.1MHz, SF9BW125, 4/5CR
- -114 -12.5 867.1MHz, SF9BW125, 4/5CR
2026-05-03 02:43:24 13.75°C 116.562% 3.36V v5 52.0944 / 5.12494 660 ttn.v3 0.376km -116 0.8 868.1MHz, SF9BW125, 4/5CR
2026-05-03 02:27:37 13.8125°C 116.562% 3.36V v5 52.0944 / 5.12494 659 ttn.v3 0.376km -116 1.2 867.9MHz, SF9BW125, 4/5CR
1.916km -110 -10.25 867.9MHz, SF9BW125, 4/5CR
2026-05-03 02:11:50 13.875°C 116.688% 3.36V v5 52.0944 / 5.12494 658 ttn.v3 0.376km -117 0 868.5MHz, SF9BW125, 4/5CR
2026-05-03 01:56:02 13.875°C 116.375% 3.36V v5 52.0944 / 5.12494 657 ttn.v3 0.376km -117 0 867.7MHz, SF9BW125, 4/5CR
2026-05-03 01:24:28 13.9375°C 115.562% 3.36V v5 52.0944 / 5.12494 655 ttn.v3 0.376km -117 0.8 867.5MHz, SF9BW125, 4/5CR
2026-05-03 01:08:41 14.0625°C 115.562% 3.36V v5 52.0944 / 5.12494 654 ttn.v3 0.376km -120 1.8 868.1MHz, SF9BW125, 4/5CR
2026-05-03 00:52:54 14.0625°C 114.5% 3.36V v5 52.0944 / 5.12494 653 ttn.v3 0.376km -115 2.8 867.3MHz, SF9BW125, 4/5CR
- -120 -5.5 867.3MHz, SF9BW125, 4/5CR
1.916km -103 -9.25 867.3MHz, SF9BW125, 4/5CR
- -114 -12.5 867.3MHz, SF9BW125, 4/5CR
2026-05-03 00:37:06 14.1875°C 113.625% 3.36V v5 52.0944 / 5.12494 652 ttn.v3 0.376km -120 -2.8 868.5MHz, SF9BW125, 4/5CR
2026-05-03 00:21:19 14.375°C 110.812% 3.36V v5 52.0944 / 5.12494 651 ttn.v3 0.376km -117 3 867.1MHz, SF9BW125, 4/5CR
- -119 -9 867.1MHz, SF9BW125, 4/5CR
- -115 -13.25 867.1MHz, SF9BW125, 4/5CR
2026-05-03 00:05:31 14.5°C 106.312% 3.36V v5 52.0944 / 5.12494 650 ttn.v3 0.376km -113 -1.8 868.3MHz, SF9BW125, 4/5CR
- -114 -14 868.3MHz, SF9BW125, 4/5CR
2026-05-02 23:49:44 14.875°C 98.125% 3.36V v5 52.0944 / 5.12494 649 ttn.v3 0.376km -120 1.5 867.9MHz, SF9BW125, 4/5CR
- -123 -13.75 867.9MHz, SF9BW125, 4/5CR
2026-05-02 23:33:56 17.25°C 73.4375% 3.36V v5 52.0944 / 5.12494 648 ttn.v3 0.376km -120 1.2 868.1MHz, SF9BW125, 4/5CR
1.916km -109 -8.5 868.1MHz, SF9BW125, 4/5CR
2026-05-02 23:18:08 17.375°C 65.375% 3.36V v5 52.0944 / 5.12494 647 ttn.v3 0.376km -117 1.5 867.7MHz, SF9BW125, 4/5CR
2026-05-02 23:02:19 17.3125°C 64.75% 3.36V v5 52.0944 / 5.12494 646 ttn.v3 0.376km -115 -1.5 868.5MHz, SF9BW125, 4/5CR
2026-05-02 22:46:31 17.4375°C 64.5625% 3.36V v5 52.0944 / 5.12494 645 ttn.v3 0.376km -117 -0.5 867.5MHz, SF9BW125, 4/5CR
2026-05-02 22:14:54 17.875°C 67.25% 3.36V v5 52.0944 / 5.12494 643 ttn.v3 0.376km -115 2 867.3MHz, SF9BW125, 4/5CR
- -114 -8.5 867.3MHz, SF9BW125, 4/5CR
- -114 -12.75 867.3MHz, SF9BW125, 4/5CR
2026-05-02 21:59:06 18.25°C 67% 3.36V v5 52.0944 / 5.12494 642 ttn.v3 0.376km -121 -0.8 868.1MHz, SF9BW125, 4/5CR
1.916km -104 -10.75 868.1MHz, SF9BW125, 4/5CR
2026-05-02 21:43:17 18.4375°C 65.625% 3.36V v5 52.0944 / 5.12494 641 ttn.v3 0.376km -117 1.8 867.1MHz, SF9BW125, 4/5CR
1.916km -109 -7.5 867.1MHz, SF9BW125, 4/5CR
2026-05-02 21:27:29 18.625°C 65.3125% 3.36V v5 52.0944 / 5.12494 640 ttn.v3 0.376km -118 -1.8 868.5MHz, SF9BW125, 4/5CR
2026-05-02 21:11:40 18.9375°C 65.5625% 3.36V v5 52.0944 / 5.12494 639 ttn.v3 0.376km -118 0 867.9MHz, SF9BW125, 4/5CR
1.916km -107 -7.25 867.9MHz, SF9BW125, 4/5CR
2026-05-02 20:55:51 19.3125°C 64.8125% 3.36V v5 52.0944 / 5.12494 638 ttn.v3 0.376km -117 0 868.3MHz, SF9BW125, 4/5CR
2026-05-02 20:40:02 19.75°C 65.125% 3.36V v5 52.0944 / 5.12494 637 ttn.v3 0.376km -119 -0.5 867.7MHz, SF9BW125, 4/5CR
- -119 -8 867.7MHz, SF9BW125, 4/5CR
2026-05-02 20:24:13 20.1875°C 63.9375% 3.36V v5 52.0944 / 5.12494 636 ttn.v3 0.376km -120 -0.5 868.1MHz, SF9BW125, 4/5CR
2026-05-02 20:08:24 20.5°C 64.6875% 3.35V v5 52.0944 / 5.12494 635 ttn.v3 0.376km -117 -1.5 867.5MHz, SF9BW125, 4/5CR
- -115 -13.75 867.5MHz, SF9BW125, 4/5CR
2026-05-02 19:52:34 20.8125°C 64.1875% 3.36V v5 52.0944 / 5.12494 634 ttn.v3 0.376km -118 -4.5 868.5MHz, SF9BW125, 4/5CR
2026-05-02 19:36:45 21.125°C 62.5% 3.36V v5 52.0944 / 5.12494 633 ttn.v3 0.376km -119 1.5 867.3MHz, SF9BW125, 4/5CR
2026-05-02 19:20:55 21.625°C 63.9375% 3.36V v5 52.0944 / 5.12494 632 ttn.v3 0.376km -119 -1.8 868.3MHz, SF9BW125, 4/5CR
2026-05-02 19:05:05 22°C 59.9375% 3.35V v5 52.0944 / 5.12494 631 ttn.v3 0.376km -120 -1 867.1MHz, SF9BW125, 4/5CR
1.916km -108 -10.25 867.1MHz, SF9BW125, 4/5CR
2026-05-02 18:49:16 22.125°C 59% 3.35V v5 52.0944 / 5.12494 630 ttn.v3 0.376km -120 -2.5 868.1MHz, SF9BW125, 4/5CR
2026-05-02 18:33:26 22.25°C 59.5% 3.36V v5 52.0944 / 5.12494 629 ttn.v3 1.916km -108 -2.5 867.9MHz, SF9BW125, 4/5CR
0.376km -120 -4 867.9MHz, SF9BW125, 4/5CR
2026-05-02 18:01:46 22.6875°C 60.3125% 3.35V v5 52.0944 / 5.12494 627 ttn.v3 0.376km -119 -2.8 867.7MHz, SF9BW125, 4/5CR
2026-05-02 17:45:55 22.9375°C 59.5625% 3.36V v5 52.0944 / 5.12494 626 ttn.v3 0.376km -119 -3.2 868.3MHz, SF9BW125, 4/5CR
2026-05-02 17:30:05 23.0625°C 61.1875% 3.35V v5 52.0944 / 5.12494 625 ttn.v3 0.376km -118 -7.2 867.5MHz, SF9BW125, 4/5CR
2026-05-02 17:14:15 23°C 61.8125% 3.36V v5 52.0944 / 5.12494 624 ttn.v3 0.376km -120 -4 868.1MHz, SF9BW125, 4/5CR
2026-05-02 16:58:25 22.875°C 64.1875% 3.35V v5 52.0944 / 5.12494 623 ttn.v3 0.376km -117 -2.8 867.3MHz, SF9BW125, 4/5CR
- -117 -3.5 867.3MHz, SF9BW125, 4/5CR
2026-05-02 16:42:35 22.9375°C 64.375% 3.35V v5 52.0944 / 5.12494 622 ttn.v3 0.376km -119 -3.5 868.5MHz, SF9BW125, 4/5CR
2026-05-02 16:26:44 23.125°C 64.375% 3.35V v5 52.0944 / 5.12494 621 ttn.v3 0.376km -118 -2.2 867.1MHz, SF9BW125, 4/5CR
- -122 -8 867.1MHz, SF9BW125, 4/5CR
- -114 -12.25 867.1MHz, SF9BW125, 4/5CR
2026-05-02 15:55:04 23.5°C 63.875% 3.35V v5 52.0944 / 5.12494 619 ttn.v3 0.376km -120 -1.2 867.9MHz, SF9BW125, 4/5CR
2026-05-02 15:39:13 23.625°C 63.375% 3.35V v5 52.0944 / 5.12494 618 ttn.v3 0.376km -121 -1.2 868.1MHz, SF9BW125, 4/5CR
1.916km -107 -10.25 868.1MHz, SF9BW125, 4/5CR
2026-05-02 15:23:22 24.375°C 61.375% 3.35V v5 52.0944 / 5.12494 617 ttn.v3 0.376km -119 0 867.7MHz, SF9BW125, 4/5CR
1.916km -107 -6 867.7MHz, SF9BW125, 4/5CR
2026-05-02 15:07:32 24.5625°C 62.4375% 3.35V v5 52.0944 / 5.12494 616 ttn.v3 0.376km -118 -3 868.5MHz, SF9BW125, 4/5CR
2026-05-02 14:51:41 23.9375°C 62.75% 3.35V v5 52.0944 / 5.12494 615 ttn.v3 0.376km -117 -0.8 867.5MHz, SF9BW125, 4/5CR
2026-05-02 14:35:51 23.3125°C 65.75% 3.36V v5 52.0944 / 5.12494 614 ttn.v3 0.376km -117 -3.5 868.3MHz, SF9BW125, 4/5CR
2026-05-02 14:20:00 22.9375°C 66.6875% 3.35V v5 52.0944 / 5.12494 613 ttn.v3 0.376km -115 1.2 867.3MHz, SF9BW125, 4/5CR
2026-05-02 14:04:10 23.0625°C 65.6875% 3.35V v5 52.0944 / 5.12494 612 ttn.v3 0.376km -120 0 868.1MHz, SF9BW125, 4/5CR
1.916km -104 -8.75 868.1MHz, SF9BW125, 4/5CR
2026-05-02 13:48:19 23.9375°C 62.6875% 3.35V v5 52.0944 / 5.12494 611 ttn.v3 0.376km -117 0.5 867.1MHz, SF9BW125, 4/5CR
1.916km -109 -11.5 867.1MHz, SF9BW125, 4/5CR
- -115 -12.75 867.1MHz, SF9BW125, 4/5CR
2026-05-02 13:32:29 22.1875°C 68.0625% 3.36V v5 52.0944 / 5.12494 610 ttn.v3 0.376km -117 -0.2 868.5MHz, SF9BW125, 4/5CR
2026-05-02 13:16:39 22.25°C 67.1875% 3.35V v5 52.0944 / 5.12494 609 ttn.v3 0.376km -120 -1 867.9MHz, SF9BW125, 4/5CR
1.916km -106 -8.75 867.9MHz, SF9BW125, 4/5CR
2026-05-02 13:00:49 22.3125°C 66.0625% 3.35V v5 52.0944 / 5.12494 608 ttn.v3 0.376km -115 -1 868.3MHz, SF9BW125, 4/5CR
2026-05-02 12:44:59 23.3125°C 63.5% 3.35V v5 52.0944 / 5.12494 607 ttn.v3 0.376km -117 0.5 867.7MHz, SF9BW125, 4/5CR
2026-05-02 12:29:09 22.125°C 67.1875% 3.35V v5 52.0944 / 5.12494 606 ttn.v3 0.376km -118 0.5 868.1MHz, SF9BW125, 4/5CR
1.916km -109 -4 868.1MHz, SF9BW125, 4/5CR
2026-05-02 12:13:19 20.875°C 71.625% 3.35V v5 52.0944 / 5.12494 605 ttn.v3 0.376km -114 -0.8 867.5MHz, SF9BW125, 4/5CR
- -114 -14.25 867.5MHz, SF9BW125, 4/5CR
2026-05-02 11:57:30 20.5625°C 73.0625% 3.36V v5 52.0944 / 5.12494 604 ttn.v3 0.376km -115 -1.5 868.5MHz, SF9BW125, 4/5CR
2026-05-02 11:41:41 19.6875°C 74.5% 3.36V v5 52.0944 / 5.12494 603 ttn.v3 0.376km -117 1 867.3MHz, SF9BW125, 4/5CR
- -117 -5.75 867.3MHz, SF9BW125, 4/5CR
2026-05-02 11:25:52 19.4375°C 73.25% 3.36V v5 52.0944 / 5.12494 602 ttn.v3 0.376km -119 -1 868.3MHz, SF9BW125, 4/5CR
2026-05-02 11:10:03 18.75°C 72.125% 3.36V v5 52.0944 / 5.12494 601 ttn.v3 0.376km -117 2 867.1MHz, SF9BW125, 4/5CR
2026-05-02 10:54:15 18.1875°C 71.8125% 3.36V v5 52.0944 / 5.12494 600 ttn.v3 0.376km -117 -0.8 868.1MHz, SF9BW125, 4/5CR
2026-05-02 10:38:26 17.6875°C 67.875% 3.36V v5 52.0944 / 5.12494 599 ttn.v3 0.376km -117 1 867.9MHz, SF9BW125, 4/5CR
- -122 -8.25 867.9MHz, SF9BW125, 4/5CR
1.916km -113 -13.75 867.9MHz, SF9BW125, 4/5CR
2026-05-02 10:22:38 17.25°C 68.75% 3.36V v5 52.0944 / 5.12494 598 ttn.v3 0.376km -117 -3.5 868.5MHz, SF9BW125, 4/5CR
2026-05-02 10:06:50 17.0625°C 71.625% 3.36V v5 52.0944 / 5.12494 597 ttn.v3 0.376km -117 -0.5 867.7MHz, SF9BW125, 4/5CR
2026-05-02 09:35:14 15.75°C 68.5% 3.36V v5 52.0944 / 5.12494 595 ttn.v3 0.376km -115 -1 867.5MHz, SF9BW125, 4/5CR
2026-05-02 09:19:27 15.4375°C 69.3125% 3.36V v5 52.0944 / 5.12494 594 ttn.v3 0.376km -120 -1 868.1MHz, SF9BW125, 4/5CR
2026-05-02 09:03:39 15.125°C 66.125% 3.36V v5 52.0944 / 5.12494 593 ttn.v3 0.376km -115 1.8 867.3MHz, SF9BW125, 4/5CR
2026-05-02 08:47:52 14.875°C 64.3125% 3.36V v5 52.0944 / 5.12494 592 ttn.v3 0.376km -119 -1.5 868.5MHz, SF9BW125, 4/5CR
2026-05-02 08:32:04 14.625°C 63.25% 3.36V v5 52.0944 / 5.12494 591 ttn.v3 0.376km -120 1.8 867.1MHz, SF9BW125, 4/5CR
- -115 -12.75 867.1MHz, SF9BW125, 4/5CR
2026-05-02 08:16:17 14.25°C 62.375% 3.36V v5 52.0944 / 5.12494 590 ttn.v3 0.376km -117 -3.2 868.3MHz, SF9BW125, 4/5CR
2026-05-02 08:00:30 13.875°C 62.4375% 3.36V v5 52.0944 / 5.12494 589 ttn.v3 0.376km -119 -1.8 867.9MHz, SF9BW125, 4/5CR
1.916km -111 -2.5 867.9MHz, SF9BW125, 4/5CR
- -121 -5.25 867.9MHz, SF9BW125, 4/5CR
2026-05-02 07:44:43 13.4375°C 63.375% 3.36V v5 52.0944 / 5.12494 588 ttn.v3 0.376km -119 -1 868.1MHz, SF9BW125, 4/5CR
1.916km -110 -6.25 868.1MHz, SF9BW125, 4/5CR
2026-05-02 07:28:56 13°C 64.75% 3.36V v5 52.0944 / 5.12494 587 ttn.v3 0.376km -117 0.8 867.7MHz, SF9BW125, 4/5CR
2026-05-02 07:13:09 12.6875°C 65.6875% 3.36V v5 52.0944 / 5.12494 586 ttn.v3 0.376km -119 -2.8 868.5MHz, SF9BW125, 4/5CR
2026-05-02 06:57:22 12.5°C 66.25% 3.36V v5 52.0944 / 5.12494 585 ttn.v3 0.376km -117 0.2 867.5MHz, SF9BW125, 4/5CR
2026-05-02 06:41:35 12.375°C 66.6875% 3.36V v5 52.0944 / 5.12494 584 ttn.v3 0.376km -114 -3.2 868.3MHz, SF9BW125, 4/5CR
2026-05-02 06:25:49 12.375°C 66.9375% 3.36V v5 52.0944 / 5.12494 583 ttn.v3 0.376km -117 1.2 867.3MHz, SF9BW125, 4/5CR
- -120 -8.25 867.3MHz, SF9BW125, 4/5CR
2026-05-02 06:10:02 12.4375°C 66.5625% 3.36V v5 52.0944 / 5.12494 582 ttn.v3 0.376km -120 -0.2 868.1MHz, SF9BW125, 4/5CR
1.916km -104 -8 868.1MHz, SF9BW125, 4/5CR
2026-05-02 05:54:15 12.375°C 66.25% 3.36V v5 52.0944 / 5.12494 581 ttn.v3 0.376km -119 2.5 867.1MHz, SF9BW125, 4/5CR
- -113 -13 867.1MHz, SF9BW125, 4/5CR
2026-05-02 05:38:29 12.625°C 65.875% 3.36V v5 52.0944 / 5.12494 580 ttn.v3 0.376km -116 -0.2 868.5MHz, SF9BW125, 4/5CR
2026-05-02 05:22:42 12.875°C 65.1875% 3.36V v5 52.0944 / 5.12494 579 ttn.v3 0.376km -118 -1.5 867.9MHz, SF9BW125, 4/5CR
1.916km -109 -3.25 867.9MHz, SF9BW125, 4/5CR
2026-05-02 05:06:55 13°C 64.75% 3.36V v5 52.0944 / 5.12494 578 ttn.v3 0.376km -115 -2.2 868.3MHz, SF9BW125, 4/5CR
2026-05-02 04:51:08 13.125°C 64.4375% 3.36V v5 52.0944 / 5.12494 577 ttn.v3 0.376km -117 0.5 867.7MHz, SF9BW125, 4/5CR
2026-05-02 04:36:42 13.25°C 63.8125% 3.36V v5 52.0944 / 5.12494 576 ttn.v3 0.376km -119 1.2 868.1MHz, SF12BW125, 4/5CR
1.916km -100 -7.25 868.1MHz, SF12BW125, 4/5CR
- -114 -15.75 868.1MHz, SF12BW125, 4/5CR
2026-05-02 04:19:38 13.5625°C 62.75% 3.36V v5 52.0942 / 5.12527 575 ttn.v3 0.37km -115 -1 867.5MHz, SF9BW125, 4/5CR
2026-05-02 04:03:51 13.625°C 61.8125% 3.36V v5 52.0942 / 5.12527 574 ttn.v3 0.37km -117 -1 868.5MHz, SF9BW125, 4/5CR
2026-05-02 03:48:03 13.6875°C 61.5% 3.36V v5 52.0942 / 5.12527 573 ttn.v3 0.37km -117 1.5 867.3MHz, SF9BW125, 4/5CR
- -113 -13.25 867.3MHz, SF9BW125, 4/5CR
2026-05-02 03:16:29 14.125°C 60.375% 3.36V v5 52.0942 / 5.12527 571 ttn.v3 0.37km -119 2 867.1MHz, SF9BW125, 4/5CR
- -123 -12 867.1MHz, SF9BW125, 4/5CR
- -117 -12 867.1MHz, SF9BW125, 4/5CR
2026-05-02 03:00:42 14.3125°C 59.5625% 3.36V v5 52.0942 / 5.12527 570 ttn.v3 0.37km -120 -0.8 868.1MHz, SF9BW125, 4/5CR
1.895km -97 -15.25 868.1MHz, SF9BW125, 4/5CR
2026-05-02 02:44:54 14.625°C 58.5% 3.36V v5 52.0942 / 5.12527 569 ttn.v3 0.37km -119 -0.5 867.9MHz, SF9BW125, 4/5CR
1.895km -107 -4.75 867.9MHz, SF9BW125, 4/5CR
2026-05-02 02:29:07 14.875°C 57.375% 3.36V v5 52.0942 / 5.12527 568 ttn.v3 0.37km -119 -2.5 868.5MHz, SF9BW125, 4/5CR
2026-05-02 02:13:20 15.1875°C 56.3125% 3.36V v5 52.0942 / 5.12527 567 ttn.v3 0.37km -119 0 867.7MHz, SF9BW125, 4/5CR
1.895km -107 -9 867.7MHz, SF9BW125, 4/5CR
2026-05-02 01:41:44 15.8125°C 53.5625% 3.36V v5 52.0942 / 5.12527 565 ttn.v3 0.37km -116 -1.8 867.5MHz, SF9BW125, 4/5CR
2026-05-02 01:25:56 16.0625°C 52.75% 3.36V v5 52.0942 / 5.12527 564 ttn.v3 0.37km -120 -0.2 868.1MHz, SF9BW125, 4/5CR
2026-05-02 01:10:09 16.3125°C 51.375% 3.36V v5 52.0942 / 5.12527 563 ttn.v3 0.37km -115 1.2 867.3MHz, SF9BW125, 4/5CR
- -119 -4.5 867.3MHz, SF9BW125, 4/5CR
- -115 -13 867.3MHz, SF9BW125, 4/5CR
2026-05-02 00:54:21 16.5625°C 50.5% 3.36V v5 52.0942 / 5.12527 562 ttn.v3 0.37km -118 -2.8 868.5MHz, SF9BW125, 4/5CR
2026-05-02 00:38:33 16.6875°C 49.875% 3.36V v5 52.0942 / 5.12527 561 ttn.v3 0.37km -120 1 867.1MHz, SF9BW125, 4/5CR
1.895km -110 -8.5 867.1MHz, SF9BW125, 4/5CR
- -115 -11.75 867.1MHz, SF9BW125, 4/5CR
2026-05-02 00:06:56 16.9375°C 49.1875% 3.36V v5 52.0942 / 5.12527 559 ttn.v3 0.37km -118 -0.5 867.9MHz, SF9BW125, 4/5CR
1.895km -109 -2.5 867.9MHz, SF9BW125, 4/5CR
- -120 -6.25 867.9MHz, SF9BW125, 4/5CR
2026-05-01 23:51:08 17.125°C 49.0625% 3.36V v5 52.0942 / 5.12527 558 ttn.v3 0.37km -118 -0.8 868.1MHz, SF9BW125, 4/5CR
2026-05-01 23:35:20 17.375°C 48.375% 3.36V v5 52.0942 / 5.12527 557 ttn.v3 0.37km -119 -0.5 867.7MHz, SF9BW125, 4/5CR
2026-05-01 23:19:32 17.8125°C 46.9375% 3.36V v5 52.0942 / 5.12527 556 ttn.v3 0.37km -118 -1.5 868.5MHz, SF9BW125, 4/5CR
2026-05-01 23:03:43 18.125°C 45.5% 3.36V v5 52.0942 / 5.12527 555 ttn.v3 0.37km -115 0.2 867.5MHz, SF9BW125, 4/5CR
2026-05-01 22:32:06 18.75°C 43.75% 3.36V v5 52.0942 / 5.12527 553 ttn.v3 0.37km -117 1.8 867.3MHz, SF9BW125, 4/5CR
- -122 -7.75 867.3MHz, SF9BW125, 4/5CR
- -113 -13.25 867.3MHz, SF9BW125, 4/5CR
2026-05-01 22:16:17 19°C 43.8125% 3.36V v5 52.0942 / 5.12527 552 ttn.v3 0.37km -120 0 868.1MHz, SF9BW125, 4/5CR
2026-05-01 22:00:29 19.1875°C 43.25% 3.36V v5 52.0942 / 5.12527 551 ttn.v3 0.37km -120 1.8 867.1MHz, SF9BW125, 4/5CR
- -117 -11.5 867.1MHz, SF9BW125, 4/5CR
2026-05-01 21:44:40 19.5°C 42.6875% 3.36V v5 52.0942 / 5.12527 550 ttn.v3 0.37km -119 -0.8 868.5MHz, SF9BW125, 4/5CR
2026-05-01 21:28:51 19.8125°C 42% 3.36V v5 52.0942 / 5.12527 549 ttn.v3 0.37km -121 -2.8 867.9MHz, SF9BW125, 4/5CR
1.895km -111 -3.5 867.9MHz, SF9BW125, 4/5CR
2026-05-01 20:57:12 20.75°C 39.875% 3.35V v5 52.0942 / 5.12527 547 ttn.v3 0.37km -119 0.2 867.7MHz, SF9BW125, 4/5CR
- -118 -11.75 867.7MHz, SF9BW125, 4/5CR
- -115 -12.5 867.7MHz, SF9BW125, 4/5CR
2026-05-01 20:41:23 21.1875°C 39.0625% 3.36V v5 52.0942 / 5.12527 546 ttn.v3 0.37km -120 -0.2 868.1MHz, SF9BW125, 4/5CR
- -114 -13.5 868.1MHz, SF9BW125, 4/5CR
2026-05-01 20:25:33 21.625°C 37.75% 3.35V v5 52.0942 / 5.12527 545 ttn.v3 0.37km -118 -3.8 867.5MHz, SF9BW125, 4/5CR
- -111 -14.25 867.5MHz, SF9BW125, 4/5CR
2026-05-01 19:53:53 22.3125°C 34.4375% 3.36V v5 52.0942 / 5.12527 543 ttn.v3 0.37km -118 -0.8 867.3MHz, SF9BW125, 4/5CR
- -118 -5.25 867.3MHz, SF9BW125, 4/5CR
- -114 -11.5 867.3MHz, SF9BW125, 4/5CR
2026-05-01 19:38:03 22.6875°C 33.25% 3.35V v5 52.0942 / 5.12527 542 ttn.v3 0.37km -117 -0.2 868.3MHz, SF9BW125, 4/5CR
2026-05-01 19:22:13 23°C 30.75% 3.36V v5 52.0942 / 5.12527 541 ttn.v3 0.37km -120 0 867.1MHz, SF9BW125, 4/5CR
- -120 -6.75 867.1MHz, SF9BW125, 4/5CR
1.895km -109 -10.5 867.1MHz, SF9BW125, 4/5CR
- -117 -11.75 867.1MHz, SF9BW125, 4/5CR
2026-05-01 19:06:23 23.0625°C 29.75% 3.35V v5 52.0942 / 5.12527 540 ttn.v3 0.37km -119 1 868.1MHz, SF9BW125, 4/5CR
- -115 -14 868.1MHz, SF9BW125, 4/5CR
2026-05-01 18:50:33 23.3125°C 29.1875% 3.35V v5 52.0942 / 5.12527 539 ttn.v3 0.37km -117 0.8 867.9MHz, SF9BW125, 4/5CR
- -114 -12.25 867.9MHz, SF9BW125, 4/5CR
2026-05-01 18:34:42 23.4375°C 29.125% 3.35V v5 52.0942 / 5.12527 538 ttn.v3 0.37km -118 -1 868.5MHz, SF9BW125, 4/5CR
2026-05-01 18:18:52 23.5625°C 28.5625% 3.35V v5 52.0942 / 5.12527 537 ttn.v3 0.37km -119 0.5 867.7MHz, SF9BW125, 4/5CR
- -112 -11 867.7MHz, SF9BW125, 4/5CR
- -118 -11.75 867.7MHz, SF9BW125, 4/5CR
2026-05-01 18:03:01 23.8125°C 28.875% 3.35V v5 52.0942 / 5.12527 536 ttn.v3 0.37km -115 -0.2 868.3MHz, SF9BW125, 4/5CR
2026-05-01 17:47:11 23.8125°C 28.9375% 3.35V v5 52.0942 / 5.12527 535 ttn.v3 0.37km -115 -3.2 867.5MHz, SF9BW125, 4/5CR
2026-05-01 17:31:20 23.875°C 28.9375% 3.35V v5 52.0942 / 5.12527 534 ttn.v3 0.37km -120 0 868.1MHz, SF9BW125, 4/5CR
2026-05-01 17:15:30 24.0625°C 28.8125% 3.35V v5 52.0942 / 5.12527 533 ttn.v3 0.37km -119 -1 867.3MHz, SF9BW125, 4/5CR
- -114 -11.5 867.3MHz, SF9BW125, 4/5CR
2026-05-01 16:59:39 24.0625°C 28.5% 3.35V v5 52.0942 / 5.12527 532 ttn.v3 0.37km -117 -1.2 868.5MHz, SF9BW125, 4/5CR
2026-05-01 16:43:48 24.125°C 28.5625% 3.36V v5 52.0942 / 5.12527 531 ttn.v3 0.37km -118 0.2 867.1MHz, SF9BW125, 4/5CR
- -115 -11.75 867.1MHz, SF9BW125, 4/5CR
2026-05-01 16:27:58 24.375°C 28.625% 3.35V v5 52.0942 / 5.12527 530 ttn.v3 0.37km -117 1.2 868.3MHz, SF9BW125, 4/5CR
2026-05-01 16:12:07 24.5°C 28.125% 3.35V v5 52.0942 / 5.12527 529 ttn.v3 1.895km -109 -0.25 867.9MHz, SF9BW125, 4/5CR
0.37km -120 -0.5 867.9MHz, SF9BW125, 4/5CR
- -115 -13.5 867.9MHz, SF9BW125, 4/5CR
2026-05-01 15:56:16 24.8125°C 27.5625% 3.35V v5 52.0942 / 5.12527 528 ttn.v3 0.37km -118 -0.8 868.1MHz, SF9BW125, 4/5CR
1.895km -105 -9.5 868.1MHz, SF9BW125, 4/5CR
- -114 -13.5 868.1MHz, SF9BW125, 4/5CR
2026-05-01 15:40:24 26.0625°C 26.125% 3.35V v5 52.0942 / 5.12527 527 ttn.v3 0.37km -115 0.8 867.7MHz, SF9BW125, 4/5CR
- -113 -13.5 867.7MHz, SF9BW125, 4/5CR
2026-05-01 15:24:33 25.75°C 26% 3.35V v5 52.0942 / 5.12527 526 ttn.v3 0.37km -114 -0.8 868.5MHz, SF9BW125, 4/5CR
2026-05-01 15:08:42 25.6875°C 26% 3.35V v5 52.0942 / 5.12527 525 ttn.v3 0.37km -115 -3.5 867.5MHz, SF9BW125, 4/5CR

Message count: 200
Node count: 1

Messages per node

Number of messages in list aboveNodes
200

Statistics per gateway

GatewayNumber of messagesNumber of nodesNodes
1981 (0.37km)
611
451 (1.895km)
301

Filter by dataset